EmailTwitter


Surface observations / Quebec / EGBB

Regions: Quebec | Canada | USA | Europe | France | UK | Elsewhere
Station
Display
Info & Location for EGBB | Help decoding METAR

Weather Conditions observed on 2017/09/19 at 13:20 UTC at BIRMINGHAM AIRPO, UK (EGBB)

Sky conditions: few clouds.

Temperature: 15.0 Celsius.

Dewpoint: 7.0 Celsius.

Relative Humidity: 59%

Winds: West-southwest at 11 km/h or 6 knots.

Mean Sea level Pressure: 102.10 kilopascals.

Horizontal visibility: 6.21 statute miles or 9.94 kilometers.

Coded METAR:

EGBB 191320Z 25006KT 210V300 9999 FEW033 15/07 Q1021=